Fort Collins, CO (80524)

7:13 AM MST on January 28, 2015 (GMT -0700)
Hearthfire Drive | Change Station
CLOSE
Current Station
Personal Weather Station
Location: Fort Collins, CO
Elevation: 5121 ft
Nearby Weather Stations

Elev 5121 ft 40.63 °N, 105.05 °W | Updated 16 seconds ago

Partly Cloudy
Partly Cloudy
52.3 °F
Feels Like 52.3 °F
N
9.2
Wind Variable Wind from West
Gusts 9.8 mph

Today
High -- | Low -- °F
--% Chance of Precip.
Yesterday
High -- | Low -- °F
Precip. -- in
7:13 AM 5:12 PM
Waxing Gibbous, 65% visible
Pressure 30.03 in
Visibility 10.0 miles
Clouds Clear
Dew Point 18 °F
Humidity 25%
Rainfall 0.00 in
Snow Depth Not available.
UV 0.0 out of 12
Pollen 2.20 out of 12
Air Quality Not available.
Flu Activity Not available.
METAR KFNL 281355Z AUTO 25015G22KT 10SM CLR 12/M05 A3003 RMK AO1

More Conditions Fewer Conditions

Pressure 30.03 in
Visibility 10.0 miles
Clouds Clear
Dew Point 18 °F
Humidity 25%
Rainfall 0.00 in
Snow Depth Not available.
UV 0.0 out of 12
Pollen 2.20 out of 12
Air Quality Not available.
Flu Activity Not available.
METAR KFNL 281355Z AUTO 25015G22KT 10SM CLR 12/M05 A3003 RMK AO1

More Conditions Fewer Conditions

Nowcast | as of 6:53 am MST on January 28, 2015

West winds at 20 to 30 mph will continue over the Front Range foothills through the mid morning hours. Gusts as high as 45 mph will occur in wind prone areas in and near the foothills.

×

10-Day Weather Forecast

Almanac

Astronomy

Jan. 28, 2015 Rise Set
Actual Time
Civil Twilight
Nautical Twilight
Astronomical Twilight
Moon
Length of Visible Light
Length of Day
Tomorrow will be .
, % of the Moon is Illuminated

Today's Extremes

State Highs State Lows

Community

WunderPhotos

Upload Photos

1,791,148 photos uploaded!

WunderBlogs® & News

Nearby

Air Quality

  Air Quality AQ Index Pollutant
Not available.

Snow Depth

Station Depth Elevation

Earthquake Activity

City Distance Mag. Time & Date
Minimum magnitude displayed is 2.5.

Coastal Water Temperatures

Place Temperature

Nearby Weather Stations